Time;durP1;ratioP1;P1;durP2;ratioP2;P2;SDS_P1;SDS_P2;PMS_P1;PMS_P2;Temp;Humidity;BMP_temperature;BMP_pressure;BME280_temperature;BME280_humidity;BME280_pressure;Samples;Min_cycle;Max_cycle;Signal;HPM_P1;HPM_P2
2021/12/31 00:01:06;;;;;;;1.77;1.02;;;13.00;92.70;;;;;;5045196;28;21434;-79
2021/12/31 00:03:32;;;;;;;1.85;1.02;;;13.00;92.70;;;;;;5024414;28;20701;-79
2021/12/31 00:05:57;;;;;;;1.30;0.82;;;13.00;92.70;;;;;;5005129;28;20425;-79
2021/12/31 00:08:23;;;;;;;1.75;1.13;;;13.00;92.70;;;;;;5041166;28;20074;-79
2021/12/31 00:10:48;;;;;;;1.25;1.13;;;13.00;92.70;;;;;;5021152;28;20470;-79
2021/12/31 00:13:14;;;;;;;2.03;1.25;;;13.00;92.70;;;;;;4989990;28;20729;-79
2021/12/31 00:15:39;;;;;;;1.02;0.70;;;12.90;92.70;;;;;;5029941;28;20032;-78
2021/12/31 00:18:05;;;;;;;1.52;0.82;;;12.90;92.70;;;;;;5025409;28;20033;-79
2021/12/31 00:20:32;;;;;;;2.20;1.02;;;13.00;92.70;;;;;;5012562;28;20033;-78
2021/12/31 00:23:06;;;;;;;2.00;0.85;;;12.90;92.60;;;;;;5024886;28;20025;-79
2021/12/31 00:25:33;;;;;;;2.88;1.00;;;13.00;92.70;;;;;;5041843;28;22448;-79
2021/12/31 00:27:59;;;;;;;2.15;1.00;;;12.90;92.70;;;;;;5023117;28;20032;-79
2021/12/31 00:30:24;;;;;;;3.35;1.23;;;12.90;92.60;;;;;;5011376;28;20029;-80
2021/12/31 00:32:50;;;;;;;1.65;1.10;;;12.90;92.60;;;;;;5005992;28;20076;-78
2021/12/31 00:35:16;;;;;;;0.77;0.60;;;13.00;92.60;;;;;;5001152;28;20668;-80
2021/12/31 00:37:41;;;;;;;1.65;0.93;;;12.90;92.60;;;;;;5008178;28;20041;-79
2021/12/31 00:40:10;;;;;;;2.08;0.93;;;12.90;92.60;;;;;;5021233;28;20049;-79
2021/12/31 00:42:35;;;;;;;1.48;0.90;;;12.90;92.60;;;;;;5035580;28;20045;-78
2021/12/31 00:45:01;;;;;;;1.45;0.90;;;12.90;92.60;;;;;;5018548;28;20088;-79
2021/12/31 00:47:27;;;;;;;1.17;0.80;;;12.90;92.60;;;;;;5029770;28;20049;-78
2021/12/31 00:49:52;;;;;;;1.65;1.15;;;13.00;92.60;;;;;;5034633;28;20064;-79
2021/12/31 00:52:18;;;;;;;2.17;0.90;;;13.00;92.50;;;;;;5019552;28;20112;-79
2021/12/31 00:54:44;;;;;;;1.30;0.90;;;13.00;92.50;;;;;;5045100;28;20059;-79
2021/12/31 00:57:10;;;;;;;1.63;0.70;;;13.00;92.50;;;;;;5017521;28;20038;-79
2021/12/31 00:59:35;;;;;;;2.05;0.70;;;13.00;92.50;;;;;;5039615;28;20036;-79
2021/12/31 01:02:03;;;;;;;1.27;0.80;;;12.90;92.50;;;;;;5015964;28;20510;-79
2021/12/31 01:04:30;;;;;;;1.88;0.88;;;12.90;92.50;;;;;;5011692;28;20045;-79
2021/12/31 01:06:57;;;;;;;2.20;1.17;;;12.90;92.50;;;;;;5003938;28;20033;-78
2021/12/31 01:09:23;;;;;;;1.55;0.82;;;12.90;92.50;;;;;;4992843;28;20049;-79
2021/12/31 01:11:49;;;;;;;1.90;0.75;;;12.90;92.50;;;;;;5002104;28;20440;-78
2021/12/31 01:14:26;;;;;;;2.58;0.82;;;12.90;92.40;;;;;;4983449;28;20099;-79
2021/12/31 01:16:57;;;;;;;1.30;0.75;;;12.90;92.40;;;;;;5001202;28;20068;-79
2021/12/31 01:21:50;;;;;;;1.45;0.80;;;12.90;92.40;;;;;;5016706;28;20052;-78
2021/12/31 01:24:17;;;;;;;2.55;0.90;;;12.90;92.40;;;;;;5017036;28;20144;-80
2021/12/31 01:26:43;;;;;;;1.40;1.00;;;12.90;92.40;;;;;;5017708;28;20534;-79
2021/12/31 01:29:08;;;;;;;2.25;1.10;;;12.90;92.40;;;;;;5015715;28;20026;-79
2021/12/31 01:31:34;;;;;;;3.42;1.00;;;12.90;92.40;;;;;;5016314;28;20684;-79
2021/12/31 01:34:01;;;;;;;1.05;0.80;;;12.90;92.30;;;;;;5019614;28;21126;-78
2021/12/31 01:36:27;;;;;;;0.90;0.80;;;12.90;92.30;;;;;;5025770;28;20032;-79
2021/12/31 01:38:52;;;;;;;1.17;0.80;;;12.90;92.30;;;;;;5025494;28;20060;-79
2021/12/31 01:41:19;;;;;;;1.27;0.82;;;12.90;92.30;;;;;;5004618;28;20128;-79
2021/12/31 01:43:45;;;;;;;2.33;0.90;;;12.90;92.30;;;;;;5000458;28;20052;-79
2021/12/31 01:46:12;;;;;;;3.88;1.08;;;12.90;92.30;;;;;;5015372;28;20029;-79
2021/12/31 01:51:24;;;;;;;2.85;1.35;;;12.90;92.30;;;;;;5024848;28;20669;-79
2021/12/31 01:53:50;;;;;;;1.83;1.08;;;12.90;92.30;;;;;;5018745;28;20056;-78
2021/12/31 01:56:16;;;;;;;2.05;1.15;;;12.90;92.30;;;;;;5026103;28;20103;-79
2021/12/31 01:58:41;;;;;;;1.95;1.13;;;12.90;92.30;;;;;;5005837;28;20706;-79
2021/12/31 02:01:07;;;;;;;1.98;1.00;;;12.90;92.20;;;;;;5016464;28;20485;-78
2021/12/31 02:03:34;;;;;;;4.38;1.05;;;12.90;92.20;;;;;;5042339;28;20029;-79
2021/12/31 02:05:59;;;;;;;4.55;1.40;;;12.90;92.20;;;;;;5051977;28;20065;-79
2021/12/31 02:08:25;;;;;;;1.67;1.20;;;12.90;92.20;;;;;;4989189;28;20147;-79
2021/12/31 02:10:51;;;;;;;3.17;1.00;;;12.90;92.20;;;;;;5019556;28;20701;-78
2021/12/31 02:13:17;;;;;;;2.20;1.17;;;12.90;92.20;;;;;;5052602;28;20033;-79
2021/12/31 02:15:43;;;;;;;2.15;1.13;;;12.80;92.20;;;;;;5027290;28;20033;-79
2021/12/31 02:18:10;;;;;;;4.00;1.60;;;12.90;92.20;;;;;;5008821;28;20419;-79
2021/12/31 02:20:41;;;;;;;1.45;1.10;;;12.90;92.20;;;;;;5013836;28;20080;-79
2021/12/31 02:23:22;;;;;;;1.58;1.13;;;12.80;92.10;;;;;;5023467;28;20167;-79
2021/12/31 02:25:47;;;;;;;4.45;1.27;;;12.80;92.10;;;;;;5024071;28;20029;-79
2021/12/31 02:28:13;;;;;;;5.85;1.45;;;12.80;92.20;;;;;;5011366;28;20025;-79
2021/12/31 02:30:38;;;;;;;1.33;1.00;;;12.80;92.20;;;;;;4992531;28;20045;-79
2021/12/31 02:33:04;;;;;;;4.10;1.30;;;12.80;92.20;;;;;;4987566;28;20095;-80
2021/12/31 02:35:33;;;;;;;3.47;1.42;;;12.80;92.20;;;;;;5025452;28;20049;-79
2021/12/31 02:37:59;;;;;;;13.07;1.88;;;12.80;92.20;;;;;;5013034;28;20651;-79
2021/12/31 02:40:26;;;;;;;3.13;1.25;;;12.80;92.20;;;;;;5010889;28;20039;-79
2021/12/31 02:42:51;;;;;;;1.50;1.25;;;12.80;92.20;;;;;;5023835;28;20041;-79
2021/12/31 02:45:17;;;;;;;3.67;1.27;;;12.80;92.20;;;;;;5031260;28;20825;-79
2021/12/31 02:47:45;;;;;;;2.38;1.25;;;12.80;92.20;;;;;;5005207;28;20045;-79
2021/12/31 02:50:16;;;;;;;2.95;1.10;;;12.80;92.20;;;;;;5021084;28;20423;-79
2021/12/31 02:52:41;;;;;;;3.35;1.27;;;12.70;92.10;;;;;;5042876;28;20049;-79
2021/12/31 02:55:08;;;;;;;3.70;1.80;;;12.70;92.20;;;;;;5030659;28;20055;-79
2021/12/31 02:57:33;;;;;;;4.45;1.20;;;12.70;92.20;;;;;;5037957;28;20037;-79
2021/12/31 02:59:59;;;;;;;3.50;1.27;;;12.70;92.20;;;;;;5020601;28;20456;-79
2021/12/31 03:02:25;;;;;;;4.32;2.63;;;12.70;92.20;;;;;;5014889;28;20063;-78
2021/12/31 03:04:53;;;;;;;3.40;1.30;;;12.70;92.20;;;;;;5010199;28;20045;-78
2021/12/31 03:07:19;;;;;;;4.15;1.23;;;12.70;92.20;;;;;;5053284;28;20033;-79
2021/12/31 03:09:47;;;;;;;3.70;1.25;;;12.70;92.20;;;;;;5004926;28;20033;-78
2021/12/31 03:12:13;;;;;;;4.38;2.08;;;12.70;92.20;;;;;;5001311;28;20059;-78
2021/12/31 03:14:40;;;;;;;2.03;1.33;;;12.70;92.20;;;;;;5010145;28;20041;-78
2021/12/31 03:17:05;;;;;;;2.13;1.50;;;12.70;92.20;;;;;;4985909;28;20064;-79
2021/12/31 03:19:31;;;;;;;5.28;1.58;;;12.70;92.20;;;;;;5055627;28;20037;-79
2021/12/31 03:21:56;;;;;;;2.38;1.50;;;12.70;92.20;;;;;;5038956;28;20582;-79
2021/12/31 03:24:22;;;;;;;3.65;1.45;;;12.70;92.20;;;;;;4996233;28;20072;-79
2021/12/31 03:26:47;;;;;;;3.10;1.30;;;12.60;92.20;;;;;;5014522;28;20061;-78
2021/12/31 03:29:13;;;;;;;2.60;1.40;;;12.60;92.20;;;;;;4993995;28;20089;-78
2021/12/31 03:31:38;;;;;;;2.28;1.65;;;12.60;92.20;;;;;;5032287;28;20799;-79
2021/12/31 03:34:04;;;;;;;2.33;1.15;;;12.60;92.30;;;;;;5012395;28;20029;-78
2021/12/31 03:36:29;;;;;;;2.08;1.48;;;12.60;92.30;;;;;;5022515;28;20099;-79
2021/12/31 03:38:55;;;;;;;5.35;2.05;;;12.60;92.30;;;;;;5006145;28;20041;-79
2021/12/31 03:41:21;;;;;;;1.42;1.10;;;12.60;92.30;;;;;;5038289;28;20575;-79
2021/12/31 03:43:46;;;;;;;2.55;1.35;;;12.60;92.30;;;;;;5012253;28;20039;-79
2021/12/31 03:46:12;;;;;;;3.13;1.58;;;12.60;92.30;;;;;;5039460;28;20041;-79
2021/12/31 03:48:37;;;;;;;2.55;1.58;;;12.60;92.30;;;;;;5005790;28;20034;-79
2021/12/31 03:51:03;;;;;;;3.08;1.70;;;12.60;92.30;;;;;;5027755;28;20115;-79
2021/12/31 03:53:28;;;;;;;2.95;1.70;;;12.60;92.30;;;;;;5029496;28;20037;-79
2021/12/31 03:55:54;;;;;;;2.75;1.30;;;12.60;92.30;;;;;;5036218;28;20031;-79
2021/12/31 03:58:19;;;;;;;1.95;1.52;;;12.60;92.30;;;;;;5014719;28;20051;-79
2021/12/31 04:00:46;;;;;;;3.97;1.70;;;12.60;92.30;;;;;;5026768;28;20554;-78
2021/12/31 04:03:11;;;;;;;2.40;1.63;;;12.60;92.30;;;;;;5040003;28;20037;-79
2021/12/31 04:05:39;;;;;;;2.38;1.52;;;12.50;92.30;;;;;;5016765;28;20042;-78
2021/12/31 04:08:05;;;;;;;3.65;1.85;;;12.60;92.30;;;;;;4996638;28;20030;-78
2021/12/31 04:10:30;;;;;;;2.10;1.83;;;12.60;92.30;;;;;;5024029;28;20041;-78
2021/12/31 04:12:56;;;;;;;5.82;2.22;;;12.50;92.30;;;;;;4992180;28;20065;-78
2021/12/31 04:15:22;;;;;;;2.08;1.75;;;12.60;92.30;;;;;;4994182;28;20044;-79
2021/12/31 04:17:47;;;;;;;3.05;2.00;;;12.50;92.30;;;;;;5013395;28;20055;-80
2021/12/31 04:20:21;;;;;;;2.88;1.75;;;12.50;92.30;;;;;;5000829;28;20033;-79
2021/12/31 04:22:55;;;;;;;2.88;1.67;;;12.50;92.30;;;;;;5010813;28;20425;-78
2021/12/31 04:25:21;;;;;;;2.70;1.73;;;12.60;92.30;;;;;;5002612;28;20042;-78
2021/12/31 04:27:46;;;;;;;4.05;1.83;;;12.50;92.30;;;;;;5018352;28;20041;-78
2021/12/31 04:30:12;;;;;;;3.20;1.85;;;12.50;92.30;;;;;;5020175;28;20141;-78
2021/12/31 04:32:39;;;;;;;3.38;1.92;;;12.50;92.30;;;;;;5026777;28;20068;-78
2021/12/31 04:35:10;;;;;;;3.78;1.90;;;12.50;92.30;;;;;;5001515;28;20029;-78
2021/12/31 04:37:35;;;;;;;3.22;1.67;;;12.50;92.30;;;;;;5009609;28;20079;-78
2021/12/31 04:40:01;;;;;;;2.38;2.00;;;12.50;92.30;;;;;;4998180;28;20522;-78
2021/12/31 04:42:26;;;;;;;2.40;1.45;;;12.50;92.30;;;;;;5017548;28;20064;-78
2021/12/31 04:44:52;;;;;;;4.00;1.75;;;12.50;92.30;;;;;;5014595;28;20941;-78
2021/12/31 04:47:17;;;;;;;2.65;1.90;;;12.50;92.30;;;;;;5008924;28;20045;-78
2021/12/31 04:49:43;;;;;;;4.60;1.95;;;12.40;92.20;;;;;;5015300;28;20045;-78
2021/12/31 04:52:08;;;;;;;3.97;1.92;;;12.50;92.30;;;;;;5028823;28;20060;-78
2021/12/31 04:54:34;;;;;;;3.65;1.98;;;12.40;92.30;;;;;;5020778;28;20061;-79
2021/12/31 04:57:00;;;;;;;3.60;2.08;;;12.40;92.30;;;;;;5016583;28;20061;-79
2021/12/31 04:59:25;;;;;;;1.98;1.70;;;12.40;92.30;;;;;;5020424;28;20068;-77
2021/12/31 05:01:51;;;;;;;2.95;2.00;;;12.40;92.30;;;;;;5018923;28;20040;-77
2021/12/31 05:04:17;;;;;;;2.47;1.73;;;12.40;92.20;;;;;;5000583;28;20040;-79
2021/12/31 05:06:42;;;;;;;6.88;2.00;;;12.40;92.20;;;;;;5015166;28;20042;-79
2021/12/31 05:09:09;;;;;;;3.45;1.90;;;12.40;92.20;;;;;;5026076;28;20510;-79
2021/12/31 05:11:35;;;;;;;4.47;2.10;;;12.40;92.30;;;;;;5009934;28;20045;-79
2021/12/31 05:14:00;;;;;;;2.72;1.83;;;12.30;92.20;;;;;;5016203;28;20050;-79
2021/12/31 05:16:26;;;;;;;2.75;1.90;;;12.30;92.20;;;;;;5011459;28;20036;-80
2021/12/31 05:18:51;;;;;;;3.05;1.90;;;12.30;92.60;;;;;;5018422;28;20091;-80
2021/12/31 05:21:17;;;;;;;5.90;2.17;;;12.30;92.40;;;;;;5017786;28;20040;-80
2021/12/31 05:23:42;;;;;;;5.32;1.73;;;12.30;92.20;;;;;;4998804;28;20064;-79
2021/12/31 05:26:08;;;;;;;3.75;1.92;;;12.30;92.30;;;;;;5018012;28;20020;-79
2021/12/31 05:28:33;;;;;;;2.70;2.00;;;12.30;92.30;;;;;;5033246;28;20037;-79
2021/12/31 05:30:59;;;;;;;4.70;2.38;;;12.20;92.60;;;;;;4997860;28;20104;-80
2021/12/31 05:33:24;;;;;;;5.82;2.00;;;12.20;92.20;;;;;;5003764;28;20033;-76
2021/12/31 05:35:50;;;;;;;2.78;1.90;;;12.20;92.20;;;;;;5001394;28;20067;-76
2021/12/31 05:38:16;;;;;;;2.72;1.60;;;12.20;92.20;;;;;;5018227;28;20017;-77
2021/12/31 05:40:41;;;;;;;2.03;1.40;;;12.20;92.20;;;;;;5021601;28;20044;-76
2021/12/31 05:43:07;;;;;;;3.03;1.75;;;12.10;92.20;;;;;;5024990;28;20107;-77
2021/12/31 05:45:32;;;;;;;6.35;1.77;;;12.10;92.20;;;;;;5022276;28;20063;-78
2021/12/31 05:47:58;;;;;;;2.38;1.98;;;12.10;92.20;;;;;;4994690;28;20072;-77
2021/12/31 05:50:29;;;;;;;2.35;1.65;;;12.10;92.20;;;;;;5015365;28;20065;-77
2021/12/31 05:52:56;;;;;;;5.50;2.03;;;12.00;92.20;;;;;;5000793;28;20048;-77
2021/12/31 05:55:22;;;;;;;2.72;1.40;;;12.00;92.20;;;;;;5021253;28;20044;-77
2021/12/31 05:57:47;;;;;;;6.32;2.08;;;12.00;92.20;;;;;;5022915;28;20032;-77
2021/12/31 06:00:13;;;;;;;4.57;1.75;;;12.00;92.20;;;;;;5018447;28;20403;-78
2021/12/31 06:02:39;;;;;;;4.10;1.80;;;12.00;92.30;;;;;;5017179;28;20534;-77
2021/12/31 06:05:05;;;;;;;11.60;6.70;;;11.90;92.30;;;;;;5048482;28;20132;-78
2021/12/31 06:07:30;;;;;;;47.55;29.45;;;11.90;92.30;;;;;;5022662;28;20094;-77
2021/12/31 06:09:56;;;;;;;6.05;3.35;;;11.90;92.30;;;;;;5010200;28;20063;-77
2021/12/31 06:12:23;;;;;;;10.18;6.38;;;11.90;92.20;;;;;;5028054;28;20076;-77
2021/12/31 06:14:52;;;;;;;7.55;5.68;;;11.90;92.20;;;;;;5014625;28;20984;-77
2021/12/31 06:17:22;;;;;;;7.75;4.53;;;11.80;92.30;;;;;;4999236;28;20086;-76
2021/12/31 06:19:48;;;;;;;3.67;2.00;;;11.80;92.30;;;;;;5002905;28;20124;-78
2021/12/31 06:22:15;;;;;;;4.30;1.83;;;11.70;92.20;;;;;;5002674;28;20183;-76
2021/12/31 06:24:41;;;;;;;1.67;1.40;;;11.70;92.30;;;;;;5019177;28;20109;-77
2021/12/31 06:27:07;;;;;;;7.40;4.45;;;11.70;92.30;;;;;;5017148;28;20041;-77
2021/12/31 06:29:33;;;;;;;6.47;1.75;;;11.60;92.20;;;;;;4984221;28;20555;-77
2021/12/31 06:31:58;;;;;;;4.55;1.60;;;11.60;92.20;;;;;;5015568;28;20061;-77
2021/12/31 06:34:24;;;;;;;2.80;1.30;;;11.60;92.20;;;;;;5029882;28;20034;-77
2021/12/31 06:36:49;;;;;;;3.50;1.30;;;11.50;92.10;;;;;;4993567;28;20107;-77
2021/12/31 06:39:15;;;;;;;2.40;1.58;;;11.40;92.20;;;;;;5026533;28;20040;-77
2021/12/31 06:41:40;;;;;;;5.40;1.90;;;11.40;92.20;;;;;;5014746;28;20044;-77
2021/12/31 06:44:06;;;;;;;3.67;1.63;;;11.30;92.10;;;;;;4999029;28;20516;-77
2021/12/31 06:46:31;;;;;;;5.20;2.22;;;11.30;92.20;;;;;;5007763;28;20053;-78
2021/12/31 06:48:57;;;;;;;3.08;1.58;;;11.20;92.20;;;;;;5021188;28;20088;-78
2021/12/31 06:51:22;;;;;;;3.83;1.45;;;11.20;92.20;;;;;;5020963;28;20041;-77
2021/12/31 06:53:48;;;;;;;2.78;1.60;;;11.10;92.20;;;;;;4993139;28;20546;-77
2021/12/31 06:56:13;;;;;;;2.92;2.40;;;11.10;92.20;;;;;;5002998;28;20050;-79
2021/12/31 06:58:39;;;;;;;2.80;2.50;;;11.10;92.20;;;;;;4997578;28;20105;-78
2021/12/31 07:01:05;;;;;;;5.32;2.80;;;11.00;92.10;;;;;;5030746;28;20030;-78
2021/12/31 07:03:31;;;;;;;5.40;2.83;;;11.00;92.20;;;;;;5022508;28;20112;-78
2021/12/31 07:05:57;;;;;;;2.80;2.08;;;10.90;92.20;;;;;;5037188;28;20027;-78
2021/12/31 07:08:22;;;;;;;4.38;2.10;;;10.80;92.10;;;;;;4994832;28;20119;-78
2021/12/31 07:10:48;;;;;;;3.72;1.92;;;10.80;92.20;;;;;;5008434;28;20665;-78
2021/12/31 07:13:13;;;;;;;8.27;1.60;;;10.70;92.20;;;;;;5007214;28;20571;-78
2021/12/31 07:15:44;;;;;;;2.28;1.83;;;10.70;92.20;;;;;;4984065;28;20033;-78
2021/12/31 07:18:10;;;;;;;2.40;1.70;;;10.60;92.20;;;;;;5019333;28;20034;-77
2021/12/31 07:20:35;;;;;;;3.47;1.70;;;10.60;92.20;;;;;;5020388;28;20037;-77
2021/12/31 07:23:06;;;;;;;2.53;1.60;;;10.60;92.20;;;;;;5009512;28;20566;-78
2021/12/31 07:25:32;;;;;;;3.67;1.90;;;10.50;92.20;;;;;;5014869;28;20079;-77
2021/12/31 07:27:57;;;;;;;3.00;1.67;;;10.40;92.20;;;;;;5022138;28;20496;-77
2021/12/31 07:30:23;;;;;;;3.00;1.10;;;10.40;92.20;;;;;;5014543;28;20101;-77
2021/12/31 07:32:48;;;;;;;6.78;3.42;;;10.30;92.30;;;;;;5035636;28;20033;-77
2021/12/31 07:35:14;;;;;;;6.68;4.25;;;10.30;92.40;;;;;;5008972;28;20033;-77
2021/12/31 07:37:39;;;;;;;7.88;3.50;;;10.20;92.40;;;;;;5034766;28;20040;-78
2021/12/31 07:40:06;;;;;;;7.28;2.70;;;10.20;92.40;;;;;;5032582;28;20038;-77
2021/12/31 07:42:32;;;;;;;6.68;4.32;;;10.20;92.50;;;;;;5010699;28;20056;-78
2021/12/31 07:44:57;;;;;;;9.38;5.82;;;10.20;92.50;;;;;;5045421;28;20119;-78
2021/12/31 07:47:23;;;;;;;8.98;5.85;;;10.10;92.50;;;;;;5021248;28;20051;-77
2021/12/31 07:49:48;;;;;;;3.20;2.40;;;10.10;92.50;;;;;;5003637;28;20033;-78
2021/12/31 07:52:14;;;;;;;4.78;3.33;;;10.10;92.50;;;;;;5040125;28;20036;-78
2021/12/31 07:54:39;;;;;;;3.13;2.22;;;10.00;92.50;;;;;;4999501;28;20723;-78
2021/12/31 07:57:05;;;;;;;5.25;1.60;;;10.00;92.60;;;;;;5029151;28;20047;-79
2021/12/31 07:59:31;;;;;;;3.63;1.90;;;10.00;92.60;;;;;;5038130;28;20046;-78
2021/12/31 08:01:56;;;;;;;2.67;1.70;;;9.90;92.60;;;;;;5018999;28;20564;-78
2021/12/31 08:04:22;;;;;;;1.88;1.35;;;9.90;92.70;;;;;;5031376;28;20039;-78
2021/12/31 08:06:47;;;;;;;1.42;1.30;;;9.90;92.70;;;;;;5012808;28;20056;-78
2021/12/31 08:09:13;;;;;;;2.83;1.50;;;9.90;92.70;;;;;;4996410;28;20511;-78
2021/12/31 08:11:39;;;;;;;3.85;2.60;;;9.90;92.80;;;;;;5012221;28;20060;-79
2021/12/31 08:14:05;;;;;;;5.18;2.40;;;9.90;92.80;;;;;;5018622;28;20060;-78
2021/12/31 08:16:30;;;;;;;3.97;2.60;;;9.90;92.80;;;;;;5053898;28;20065;-81
2021/12/31 08:18:56;;;;;;;8.93;3.22;;;9.90;92.90;;;;;;5005303;28;20025;-78
2021/12/31 08:21:21;;;;;;;7.57;3.35;;;9.80;92.90;;;;;;5013295;28;20033;-78
2021/12/31 08:23:48;;;;;;;13.15;6.43;;;9.80;92.90;;;;;;5035852;28;20037;-78
2021/12/31 08:26:13;;;;;;;10.82;5.25;;;9.80;93.00;;;;;;5019141;28;20112;-79
2021/12/31 08:28:39;;;;;;;9.60;4.18;;;9.80;93.00;;;;;;5025604;28;20568;-78
2021/12/31 08:31:04;;;;;;;7.65;3.90;;;9.80;93.00;;;;;;5020532;28;20029;-80
2021/12/31 08:33:30;;;;;;;9.45;4.35;;;9.80;93.10;;;;;;5003195;28;20554;-78
2021/12/31 08:35:55;;;;;;;10.85;5.00;;;9.90;93.10;;;;;;5003581;28;20625;-78
2021/12/31 08:38:22;;;;;;;4.90;3.30;;;9.90;93.10;;;;;;5018448;28;20037;-78
2021/12/31 08:40:47;;;;;;;3.35;2.70;;;9.90;93.20;;;;;;5023316;28;20056;-78
2021/12/31 08:43:13;;;;;;;7.40;4.15;;;10.00;93.30;;;;;;5036812;28;20072;-78
2021/12/31 08:45:39;;;;;;;6.70;4.10;;;10.10;93.30;;;;;;5022358;28;20074;-78
2021/12/31 08:48:04;;;;;;;3.95;3.00;;;10.10;93.40;;;;;;5023461;28;20099;-78
2021/12/31 08:50:30;;;;;;;9.07;3.60;;;10.20;93.40;;;;;;5021356;28;20527;-79
2021/12/31 08:52:56;;;;;;;8.93;4.20;;;10.30;93.50;;;;;;5022583;28;20041;-78
2021/12/31 08:55:21;;;;;;;4.78;4.10;;;10.40;93.50;;;;;;5021362;28;20040;-78
2021/12/31 08:57:47;;;;;;;11.48;6.60;;;10.50;93.50;;;;;;5006339;28;20033;-78
2021/12/31 09:00:13;;;;;;;8.95;4.60;;;10.60;93.50;;;;;;5011916;28;20033;-78
2021/12/31 09:02:39;;;;;;;11.35;6.00;;;10.70;93.50;;;;;;5031563;28;20047;-78
2021/12/31 09:05:06;;;;;;;6.32;4.20;;;10.70;93.90;;;;;;5001955;28;20045;-78
2021/12/31 09:07:32;;;;;;;12.15;6.18;;;10.90;93.50;;;;;;5015694;28;20157;-78
2021/12/31 09:09:57;;;;;;;9.88;5.97;;;11.00;93.60;;;;;;5011273;28;20207;-78
2021/12/31 09:12:23;;;;;;;7.80;4.32;;;11.10;93.50;;;;;;5018661;28;20044;-78
2021/12/31 09:14:49;;;;;;;5.00;3.55;;;11.10;93.50;;;;;;5000354;28;20037;-78
2021/12/31 09:17:14;;;;;;;7.63;3.95;;;11.30;93.50;;;;;;5013302;28;20051;-79
2021/12/31 09:19:40;;;;;;;9.85;4.32;;;11.40;93.50;;;;;;5016470;28;20118;-78
2021/12/31 09:22:06;;;;;;;4.38;2.80;;;11.50;93.50;;;;;;4998917;28;20072;-78
2021/12/31 09:24:31;;;;;;;3.00;2.55;;;11.60;93.40;;;;;;5014205;28;20037;-78
2021/12/31 09:26:57;;;;;;;2.58;1.80;;;11.70;93.40;;;;;;5015990;28;20463;-78
2021/12/31 09:29:23;;;;;;;2.15;1.92;;;11.80;93.30;;;;;;5017302;28;20041;-78
2021/12/31 09:31:50;;;;;;;2.97;2.00;;;11.90;93.20;;;;;;5014863;28;20045;-78
2021/12/31 09:34:15;;;;;;;2.65;2.03;;;12.10;93.10;;;;;;5025302;28;20536;-78
2021/12/31 09:36:41;;;;;;;3.50;1.98;;;12.20;93.00;;;;;;4987498;28;20056;-78
2021/12/31 09:39:06;;;;;;;2.60;1.90;;;12.30;92.90;;;;;;5015653;28;20233;-78
2021/12/31 09:41:32;;;;;;;3.03;1.80;;;12.40;92.80;;;;;;5002017;28;20088;-79
2021/12/31 09:43:57;;;;;;;2.60;2.00;;;12.50;92.70;;;;;;5005788;28;20033;-78
2021/12/31 09:46:23;;;;;;;2.42;1.80;;;12.60;92.70;;;;;;5003817;28;20031;-78
2021/12/31 09:48:49;;;;;;;3.03;2.08;;;12.70;92.70;;;;;;5012875;28;20034;-77
2021/12/31 09:51:15;;;;;;;1.75;1.58;;;12.80;92.60;;;;;;5008009;28;20048;-78
2021/12/31 09:53:41;;;;;;;2.63;1.73;;;12.90;92.40;;;;;;5017681;28;20532;-78
2021/12/31 09:56:07;;;;;;;5.00;1.90;;;13.10;92.50;;;;;;5008838;28;20095;-78
2021/12/31 09:58:34;;;;;;;4.88;1.65;;;13.10;92.40;;;;;;5019297;28;20039;-78
2021/12/31 10:01:01;;;;;;;2.47;1.80;;;13.30;92.30;;;;;;5011571;28;20033;-79
2021/12/31 10:03:29;;;;;;;4.22;2.22;;;13.40;92.30;;;;;;5023362;28;20052;-79
2021/12/31 10:06:21;;;;;;;1.95;1.70;;;13.50;92.10;;;;;;4980100;28;20065;-80
2021/12/31 10:08:47;;;;;;;;;;;13.60;92.00;;;;;;5014105;28;20526;-80
2021/12/31 10:11:20;;;;;;;3.05;1.40;;;13.70;92.10;;;;;;5007232;28;19944;-80
2021/12/31 10:13:51;;;;;;;1.63;1.30;;;13.80;91.90;;;;;;5000043;28;20100;-79
2021/12/31 10:16:51;;;;;;;3.35;1.45;;;13.90;91.80;;;;;;5035260;28;20042;-78
2021/12/31 10:19:18;;;;;;;1.67;1.40;;;14.00;91.60;;;;;;5008786;28;20065;-78
2021/12/31 10:21:51;;;;;;;4.75;1.85;;;14.10;91.60;;;;;;5011333;28;20101;-79
2021/12/31 10:24:21;;;;;;;1.63;1.33;;;14.30;91.40;;;;;;5011680;28;20530;-79
2021/12/31 10:26:46;;;;;;;6.25;1.58;;;14.30;91.20;;;;;;4998250;28;20103;-79
2021/12/31 10:29:12;;;;;;;6.97;1.60;;;14.40;91.10;;;;;;5018668;28;20046;-73
2021/12/31 10:31:45;;;;;;;2.90;1.88;;;14.50;90.90;;;;;;5007703;28;20034;-79
2021/12/31 10:34:30;;;;;;;3.03;1.63;;;14.60;90.80;;;;;;5012616;28;20037;-78
2021/12/31 10:37:03;;;;;;;1.85;1.50;;;14.80;90.70;;;;;;5012155;28;20086;-77
2021/12/31 10:39:31;;;;;;;3.30;1.52;;;14.90;90.70;;;;;;5028191;28;20038;-78
2021/12/31 10:42:04;;;;;;;2.92;1.90;;;15.00;90.70;;;;;;5035433;28;20115;-77
2021/12/31 10:44:43;;;;;;;3.65;2.00;;;15.10;90.40;;;;;;5004247;28;20026;-77
2021/12/31 10:47:11;;;;;;;2.22;1.25;;;15.20;89.90;;;;;;5013174;28;20072;-77
2021/12/31 10:50:02;;;;;;;2.08;1.25;;;15.30;90.10;;;;;;5043200;28;20036;-77
2021/12/31 10:52:53;;;;;;;2.45;1.58;;;15.40;89.80;;;;;;5017741;28;20038;-77
2021/12/31 10:55:24;;;;;;;1.65;1.20;;;15.50;89.90;;;;;;5017276;28;20131;-77
2021/12/31 10:57:54;;;;;;;3.67;2.38;;;15.60;89.60;;;;;;5014231;28;20046;-77
2021/12/31 11:00:20;;;;;;;4.05;1.90;;;15.60;89.40;;;;;;5016525;28;20124;-77
2021/12/31 11:02:48;;;;;;;2.50;0.98;;;15.60;89.30;;;;;;5034660;28;20465;-77
2021/12/31 11:05:16;;;;;;;2.45;1.40;;;15.70;89.20;;;;;;5039088;28;20637;-77
2021/12/31 11:07:41;;;;;;;3.17;1.33;;;15.70;88.80;;;;;;5000560;28;20120;-78
2021/12/31 11:10:08;;;;;;;3.17;1.10;;;15.80;88.70;;;;;;5018283;28;20120;-78
2021/12/31 11:12:34;;;;;;;1.45;1.10;;;15.90;89.50;;;;;;5027962;28;20045;-77
2021/12/31 11:15:00;;;;;;;4.15;1.77;;;16.00;88.70;;;;;;5019393;28;20103;-78
2021/12/31 11:17:25;;;;;;;1.77;1.27;;;16.20;88.50;;;;;;5038363;28;20090;-77
2021/12/31 11:19:53;;;;;;;3.35;1.20;;;16.30;88.00;;;;;;5018311;28;20040;-77
2021/12/31 11:22:24;;;;;;;2.88;1.10;;;16.40;87.60;;;;;;5001144;28;20095;-77
2021/12/31 11:24:50;;;;;;;2.75;1.27;;;16.50;87.30;;;;;;5027322;28;21042;-78
2021/12/31 11:27:42;;;;;;;4.43;1.20;;;16.60;87.30;;;;;;4995724;28;20034;-77
2021/12/31 11:30:14;;;;;;;2.65;1.08;;;16.70;86.40;;;;;;5016519;28;20056;-77
2021/12/31 11:32:42;;;;;;;3.80;1.70;;;16.70;86.60;;;;;;4997906;28;20028;-76
2021/12/31 11:35:33;;;;;;;2.42;1.40;;;16.70;86.20;;;;;;5015593;28;20416;-78
2021/12/31 11:37:59;;;;;;;3.87;2.87;;;16.80;86.00;;;;;;5017230;28;20030;-77
2021/12/31 11:40:39;;;;;;;2.22;1.30;;;16.90;86.00;;;;;;5018904;28;20304;-78
2021/12/31 11:43:17;;;;;;;4.10;1.48;;;17.00;85.90;;;;;;4977227;28;20046;-78
2021/12/31 11:45:42;;;;;;;2.33;1.48;;;17.10;85.50;;;;;;5017194;28;20844;-77
2021/12/31 11:48:43;;;;;;;3.90;1.42;;;17.20;85.70;;;;;;4999889;28;20041;-78
2021/12/31 11:51:12;;;;;;;6.88;1.33;;;17.30;85.20;;;;;;5026163;28;20120;-78
2021/12/31 11:54:06;;;;;;;4.43;1.33;;;17.30;85.20;;;;;;5016833;28;20116;-78
2021/12/31 11:56:45;;;;;;;4.70;1.20;;;17.40;84.00;;;;;;5002079;28;20407;-78
2021/12/31 11:59:11;;;;;;;3.38;1.92;;;17.40;84.10;;;;;;5026725;28;20033;-77
2021/12/31 12:01:37;;;;;;;2.03;1.55;;;17.40;84.10;;;;;;5023758;28;20040;-78
2021/12/31 12:04:21;;;;;;;1.98;1.30;;;17.40;84.00;;;;;;5032094;28;20040;-79
2021/12/31 12:06:53;;;;;;;5.90;1.33;;;17.40;82.60;;;;;;5026511;28;20040;-77
2021/12/31 12:09:18;;;;;;;;;;;17.50;83.10;;;;;;5008749;28;20151;-77
2021/12/31 12:12:13;;;;;;;6.32;1.60;;;17.50;83.40;;;;;;5015229;28;19912;-77
2021/12/31 12:14:54;;;;;;;2.25;1.27;;;17.40;82.70;;;;;;5014124;28;20045;-77
2021/12/31 12:17:28;;;;;;;6.22;1.40;;;17.40;82.90;;;;;;5040166;28;20442;-78
2021/12/31 12:20:02;;;;;;;4.22;1.58;;;17.40;82.80;;;;;;5029588;28;20045;-78
2021/12/31 12:22:40;;;;;;;2.78;1.10;;;17.30;83.10;;;;;;5036058;28;20065;-79
2021/12/31 12:25:25;;;;;;;3.70;1.20;;;17.30;83.20;;;;;;5039536;28;20562;-73
2021/12/31 12:28:02;;;;;;;4.07;1.77;;;17.30;83.20;;;;;;5002494;28;20066;-78
2021/12/31 12:30:28;;;;;;;3.78;1.38;;;17.30;82.70;;;;;;5021176;28;20040;-78
2021/12/31 12:35:53;;;;;;;1.95;1.00;;;17.40;82.30;;;;;;5007668;28;20035;-80
2021/12/31 12:38:23;;;;;;;3.63;1.27;;;17.30;82.00;;;;;;5022695;28;20120;-80
2021/12/31 12:41:00;;;;;;;1.63;1.10;;;17.20;81.90;;;;;;5001366;28;20423;-79
2021/12/31 12:43:36;;;;;;;1.65;1.00;;;17.10;82.10;;;;;;5013327;28;20032;-80
2021/12/31 12:46:06;;;;;;;2.13;1.30;;;17.10;81.90;;;;;;5015666;28;20112;-81
2021/12/31 12:48:36;;;;;;;1.35;0.90;;;17.10;81.80;;;;;;4995499;28;20071;-81
2021/12/31 12:51:06;;;;;;;1.90;1.40;;;17.10;81.40;;;;;;5029851;28;20045;-80
2021/12/31 12:53:33;;;;;;;3.70;1.20;;;17.00;81.40;;;;;;5003848;28;20044;-80
2021/12/31 12:56:09;;;;;;;2.60;1.23;;;16.90;81.30;;;;;;5036258;28;20061;-79
2021/12/31 12:58:40;;;;;;;3.03;1.70;;;16.90;81.00;;;;;;4999830;28;20032;-79